createdAt,value
2023-04-18T00:01:34.650Z,17.30
2023-04-18T00:04:03.027Z,19.75
2023-04-18T00:06:31.868Z,19.88
2023-04-18T00:08:59.925Z,14.00
2023-04-18T00:11:27.909Z,14.40
2023-04-18T00:13:57.469Z,16.77
2023-04-18T00:16:25.637Z,16.00
2023-04-18T00:18:55.236Z,32.90
2023-04-18T00:21:25.596Z,14.63
2023-04-18T00:23:53.817Z,15.25
2023-04-18T00:26:21.903Z,17.13
2023-04-18T00:28:50.133Z,11.00
2023-04-18T00:31:20.450Z,11.80
2023-04-18T00:33:49.180Z,12.43
2023-04-18T00:36:17.206Z,11.85
2023-04-18T00:38:46.308Z,16.30
2023-04-18T00:41:16.501Z,13.45
2023-04-18T00:43:44.505Z,16.50
2023-04-18T00:46:12.697Z,12.60
2023-04-18T00:48:42.179Z,13.57
2023-04-18T00:51:11.216Z,12.43
2023-04-18T00:53:39.346Z,13.02
2023-04-18T00:56:07.772Z,12.13
2023-04-18T00:58:35.978Z,10.63
2023-04-18T01:01:04.107Z,10.32
2023-04-18T01:03:52.471Z,10.77
2023-04-18T01:06:20.985Z,11.77
2023-04-18T01:08:49.191Z,18.65
2023-04-18T01:11:19.406Z,10.45
2023-04-18T01:14:00.066Z,12.43
2023-04-18T01:16:29.661Z,9.90
2023-04-18T01:18:59.183Z,12.23
2023-04-18T01:21:31.353Z,16.90
2023-04-18T01:24:04.180Z,14.65
2023-04-18T01:26:33.692Z,12.52
2023-04-18T01:29:04.750Z,9.63
2023-04-18T01:31:35.371Z,11.73
2023-04-18T01:34:05.731Z,12.23
2023-04-18T01:36:34.329Z,12.40
2023-04-18T01:39:04.217Z,10.27
2023-04-18T01:41:33.636Z,14.98
2023-04-18T01:44:02.005Z,11.80
2023-04-18T01:46:30.400Z,13.07
2023-04-18T01:48:58.855Z,12.00
2023-04-18T01:51:31.421Z,16.15
2023-04-18T01:54:00.228Z,14.57
2023-04-18T01:56:28.295Z,17.75
2023-04-18T01:59:00.520Z,13.55
2023-04-18T02:01:29.419Z,19.63
2023-04-18T02:04:00.147Z,15.35
2023-04-18T02:06:28.400Z,11.98
2023-04-18T02:08:56.352Z,12.63
2023-04-18T02:11:26.432Z,12.73
2023-04-18T02:13:54.496Z,12.13
2023-04-18T02:16:24.105Z,10.55
2023-04-18T02:18:52.930Z,11.82
2023-04-18T02:21:21.979Z,8.65
2023-04-18T02:23:51.143Z,11.32
2023-04-18T02:26:23.140Z,13.57
2023-04-18T02:28:52.216Z,16.38
2023-04-18T02:31:20.318Z,12.55
2023-04-18T02:33:49.702Z,9.18
2023-04-18T02:36:17.708Z,12.55
2023-04-18T02:38:46.020Z,10.52
2023-04-18T02:41:17.483Z,10.75
2023-04-18T02:43:45.750Z,10.90
2023-04-18T02:46:16.142Z,8.98
2023-04-18T02:48:46.876Z,11.07
2023-04-18T02:51:19.937Z,10.48
2023-04-18T02:53:48.429Z,12.38
2023-04-18T02:56:17.968Z,17.02
2023-04-18T02:59:04.269Z,17.80
2023-04-18T03:01:45.921Z,12.35
2023-04-18T03:04:17.846Z,16.67
2023-04-18T03:06:56.125Z,18.80
2023-04-18T03:09:24.382Z,17.92
2023-04-18T03:11:57.821Z,14.65
2023-04-18T03:14:28.806Z,13.30
2023-04-18T03:16:57.465Z,14.30
2023-04-18T03:22:07.388Z,22.33
2023-04-18T03:24:40.059Z,26.70
2023-04-18T03:27:09.422Z,20.58
2023-04-18T03:29:40.084Z,19.67
2023-04-18T03:32:08.766Z,24.02
2023-04-18T03:34:36.989Z,19.08
2023-04-18T03:37:09.330Z,20.20
2023-04-18T03:39:43.963Z,23.35
2023-04-18T03:42:12.327Z,21.88
2023-04-18T03:44:41.948Z,15.90
2023-04-18T03:47:10.349Z,14.77
2023-04-18T03:49:41.848Z,25.23
2023-04-18T03:52:11.592Z,17.65
2023-04-18T03:54:39.704Z,16.98
2023-04-18T03:57:07.840Z,16.88
2023-04-18T03:59:37.897Z,15.30
2023-04-18T04:02:07.828Z,34.78
2023-04-18T04:04:36.155Z,11.65
2023-04-18T04:07:04.637Z,21.42
2023-04-18T04:09:34.097Z,10.32
2023-04-18T04:12:02.423Z,11.68
2023-04-18T04:14:31.272Z,17.02
2023-04-18T04:16:59.509Z,14.15
2023-04-18T04:19:27.588Z,12.25
2023-04-18T04:22:06.786Z,17.77
2023-04-18T04:24:38.457Z,12.15
2023-04-18T04:27:08.216Z,13.90
2023-04-18T04:29:39.384Z,16.77
2023-04-18T04:32:08.618Z,17.30
2023-04-18T04:34:41.393Z,15.43
2023-04-18T04:37:14.096Z,12.88
2023-04-18T04:39:56.594Z,11.73
2023-04-18T04:42:37.688Z,12.98
2023-04-18T04:45:13.118Z,16.40
2023-04-18T04:47:41.324Z,12.75
2023-04-18T04:50:14.750Z,10.98
2023-04-18T04:52:42.990Z,14.70
2023-04-18T04:55:12.494Z,14.45
2023-04-18T04:57:42.071Z,14.57
2023-04-18T05:00:42.717Z,19.55
2023-04-18T05:03:11.813Z,16.50
2023-04-18T05:05:40.279Z,21.75
2023-04-18T05:08:08.366Z,11.93
2023-04-18T05:10:37.997Z,23.60
2023-04-18T05:13:06.189Z,18.50
2023-04-18T05:15:34.270Z,14.25
2023-04-18T05:18:03.468Z,16.67
2023-04-18T05:20:32.291Z,16.23
2023-04-18T05:23:00.389Z,24.48
2023-04-18T05:25:29.831Z,17.20
2023-04-18T05:28:04.521Z,30.83
2023-04-18T05:30:33.865Z,18.15
2023-04-18T05:33:02.038Z,15.93
2023-04-18T05:35:30.295Z,20.27
2023-04-18T05:37:59.546Z,20.58
2023-04-18T05:40:28.342Z,14.10
2023-04-18T05:42:56.440Z,22.70
2023-04-18T05:45:25.782Z,19.88
2023-04-18T05:47:54.608Z,23.02
2023-04-18T05:50:23.189Z,26.50
2023-04-18T05:52:51.272Z,25.20
2023-04-18T05:55:19.674Z,29.13
2023-04-18T05:57:48.052Z,19.33
2023-04-18T06:00:17.171Z,19.17
2023-04-18T06:02:46.903Z,21.40
2023-04-18T06:05:15.616Z,17.75
2023-04-18T06:07:43.992Z,21.77
2023-04-18T06:10:13.627Z,16.33
2023-04-18T06:12:42.076Z,21.95
2023-04-18T06:15:11.761Z,14.20
2023-04-18T06:17:39.872Z,24.10
2023-04-18T06:20:11.285Z,33.40
2023-04-18T06:22:39.453Z,35.78
2023-04-18T06:25:10.153Z,19.40
2023-04-18T06:27:38.960Z,19.50
2023-04-18T06:30:08.195Z,20.05
2023-04-18T06:32:36.327Z,28.70
2023-04-18T06:35:04.785Z,25.58
2023-04-18T06:37:34.402Z,28.77
2023-04-18T06:40:02.460Z,24.95
2023-04-18T06:42:31.234Z,22.60
2023-04-18T06:44:59.358Z,22.00
2023-04-18T06:47:27.560Z,26.73
2023-04-18T06:49:55.545Z,21.75
2023-04-18T06:52:23.819Z,22.60
2023-04-18T06:54:53.264Z,20.83
2023-04-18T06:57:21.633Z,32.10
2023-04-18T06:59:49.692Z,21.73
2023-04-18T07:02:17.878Z,26.65
2023-04-18T07:04:46.094Z,29.33
2023-04-18T07:07:14.225Z,16.05
2023-04-18T07:09:42.372Z,23.55
2023-04-18T07:12:11.881Z,24.90
2023-04-18T07:14:40.061Z,21.65
2023-04-18T07:17:08.263Z,18.30
2023-04-18T07:19:36.589Z,20.33
2023-04-18T07:22:04.638Z,16.35
2023-04-18T07:24:32.665Z,21.67
2023-04-18T07:27:01.487Z,24.23
2023-04-18T07:29:31.169Z,21.75
2023-04-18T07:31:59.641Z,29.02
2023-04-18T07:34:29.869Z,25.48
2023-04-18T07:36:58.130Z,19.42
2023-04-18T07:39:26.414Z,26.70
2023-04-18T07:41:54.813Z,35.67
2023-04-18T07:44:25.384Z,26.83
2023-04-18T07:46:55.885Z,22.60
2023-04-18T07:49:23.892Z,23.17
2023-04-18T07:51:52.050Z,25.58
2023-04-18T07:54:20.108Z,28.25
2023-04-18T07:56:48.265Z,33.83
2023-04-18T07:59:16.619Z,28.95
2023-04-18T08:01:45.095Z,29.42
2023-04-18T08:04:15.089Z,37.15
2023-04-18T08:06:43.324Z,20.35
2023-04-18T08:09:12.086Z,23.10
2023-04-18T08:11:42.074Z,20.40
2023-04-18T08:14:10.240Z,23.35
2023-04-18T08:16:38.444Z,18.98
2023-04-18T08:19:06.974Z,23.75
2023-04-18T08:21:36.546Z,28.90
2023-04-18T08:24:04.705Z,22.00
2023-04-18T08:26:32.866Z,24.13
2023-04-18T08:29:00.906Z,26.55
2023-04-18T08:31:31.683Z,26.20
2023-04-18T08:33:59.808Z,20.42
2023-04-18T08:36:28.044Z,27.83
2023-04-18T08:38:58.117Z,20.23
2023-04-18T08:41:28.746Z,19.90
2023-04-18T08:43:57.216Z,10.88
2023-04-18T08:46:25.575Z,16.77
2023-04-18T08:48:53.819Z,11.48
2023-04-18T08:51:21.920Z,16.15
2023-04-18T08:53:50.721Z,16.67
2023-04-18T08:56:22.477Z,12.45
2023-04-18T08:58:50.833Z,10.55
2023-04-18T09:01:18.955Z,19.50
2023-04-18T09:03:47.142Z,14.77
2023-04-18T09:06:18.993Z,12.27
2023-04-18T09:08:57.544Z,15.90
2023-04-18T09:11:28.982Z,9.32
2023-04-18T09:13:59.964Z,14.02
2023-04-18T09:16:29.344Z,16.02
2023-04-18T09:19:11.985Z,8.32
2023-04-18T09:21:41.849Z,16.45
2023-04-18T09:24:23.980Z,16.08
2023-04-18T09:26:55.881Z,11.25
2023-04-18T09:29:42.205Z,14.57
2023-04-18T09:32:11.319Z,14.65
2023-04-18T09:34:43.137Z,13.23
2023-04-18T09:37:12.470Z,9.43
2023-04-18T09:39:42.438Z,18.17
2023-04-18T09:42:12.660Z,7.85
2023-04-18T09:44:59.616Z,13.52
2023-04-18T09:47:29.017Z,10.00
2023-04-18T09:49:57.626Z,14.43
2023-04-18T09:52:26.837Z,10.15
2023-04-18T09:55:00.832Z,8.80
2023-04-18T09:57:32.456Z,10.60
2023-04-18T10:00:08.745Z,17.42
2023-04-18T10:02:48.599Z,12.35
2023-04-18T10:05:19.530Z,8.95
2023-04-18T10:07:50.648Z,10.65
2023-04-18T10:10:19.213Z,12.15
2023-04-18T10:12:51.750Z,11.50
2023-04-18T10:15:22.162Z,9.52
2023-04-18T10:18:04.410Z,6.03
2023-04-18T10:20:35.388Z,7.15
2023-04-18T10:23:37.610Z,6.90
2023-04-18T10:26:09.874Z,8.80
2023-04-18T10:28:54.674Z,8.82
2023-04-18T10:31:24.496Z,11.73
2023-04-18T10:36:28.452Z,8.38
2023-04-18T10:39:02.942Z,17.85
2023-04-18T10:41:33.450Z,6.90
2023-04-18T10:44:32.823Z,13.57
2023-04-18T10:47:31.621Z,9.73
2023-04-18T10:50:06.153Z,6.85
2023-04-18T10:52:35.156Z,7.10
2023-04-18T10:55:14.746Z,8.07
2023-04-18T10:57:47.053Z,10.25
2023-04-18T11:00:18.634Z,9.77
2023-04-18T11:02:53.903Z,7.07
2023-04-18T11:05:25.040Z,7.97
2023-04-18T11:07:53.420Z,14.15
2023-04-18T11:10:23.772Z,7.15
2023-04-18T11:12:52.560Z,13.93
2023-04-18T11:15:23.870Z,11.63
2023-04-18T11:18:00.015Z,10.63
2023-04-18T11:20:28.630Z,5.13
2023-04-18T11:22:57.664Z,5.35
2023-04-18T11:25:27.814Z,8.18
2023-04-18T11:27:59.203Z,6.05
2023-04-18T11:30:31.385Z,5.03
2023-04-18T11:32:59.542Z,6.07
2023-04-18T11:35:28.017Z,9.45
2023-04-18T11:37:56.519Z,6.75
2023-04-18T11:40:24.653Z,12.95
2023-04-18T11:42:55.763Z,5.78
2023-04-18T11:45:23.973Z,5.75
2023-04-18T11:47:57.479Z,8.00
2023-04-18T11:50:28.025Z,8.32
2023-04-18T11:52:57.819Z,7.80
2023-04-18T11:55:27.372Z,13.75
2023-04-18T11:57:56.589Z,7.00
2023-04-18T12:00:35.432Z,4.00
2023-04-18T12:03:06.896Z,4.00
2023-04-18T12:05:37.120Z,5.43
2023-04-18T12:08:13.125Z,4.55
2023-04-18T12:10:47.827Z,8.25
2023-04-18T12:13:16.143Z,5.45
2023-04-18T12:15:45.665Z,6.82
2023-04-18T12:18:18.279Z,11.82
2023-04-18T12:23:32.869Z,4.55
2023-04-18T12:26:02.369Z,7.38
2023-04-18T12:28:31.039Z,16.77
2023-04-18T12:30:59.352Z,12.55
2023-04-18T12:33:29.004Z,6.85
2023-04-18T12:35:57.434Z,16.42
2023-04-18T12:38:25.708Z,12.77
2023-04-18T12:40:53.953Z,6.20
2023-04-18T12:43:22.016Z,12.35
2023-04-18T12:45:51.522Z,4.82
2023-04-18T12:48:19.664Z,8.55
2023-04-18T12:50:49.145Z,15.15
2023-04-18T12:53:17.416Z,15.27
2023-04-18T12:55:45.886Z,12.85
2023-04-18T12:58:18.579Z,4.88
2023-04-18T13:00:46.988Z,4.50
2023-04-18T13:03:15.589Z,8.80
2023-04-18T13:05:43.887Z,12.52
2023-04-18T13:08:17.627Z,6.82
2023-04-18T13:10:47.639Z,5.82
2023-04-18T13:13:16.728Z,4.10
2023-04-18T13:15:44.859Z,5.82
2023-04-18T13:18:13.059Z,6.75
2023-04-18T13:20:41.144Z,3.95
2023-04-18T13:23:09.183Z,6.85
2023-04-18T13:25:38.563Z,8.18
2023-04-18T13:28:06.798Z,3.10
2023-04-18T13:30:35.848Z,4.68
2023-04-18T13:33:05.274Z,6.43
2023-04-18T13:35:33.419Z,3.53
2023-04-18T13:38:01.475Z,9.00
2023-04-18T13:40:29.509Z,14.43
2023-04-18T13:42:58.930Z,34.53
2023-04-18T13:45:27.502Z,6.00
2023-04-18T13:47:55.605Z,9.98
2023-04-18T13:50:24.463Z,5.32
2023-04-18T13:52:54.659Z,6.22
2023-04-18T13:55:22.945Z,4.15
2023-04-18T13:57:51.102Z,7.57
2023-04-18T14:00:21.650Z,8.52
2023-04-18T14:02:51.088Z,7.22
2023-04-18T14:05:19.477Z,3.47
2023-04-18T14:07:48.607Z,3.13
2023-04-18T14:10:16.668Z,4.53
2023-04-18T14:12:44.798Z,5.28
2023-04-18T14:15:13.146Z,8.07
2023-04-18T14:17:45.313Z,5.05
2023-04-18T14:22:43.918Z,6.40
2023-04-18T14:25:12.015Z,6.78
2023-04-18T14:27:40.401Z,6.57
2023-04-18T14:30:10.114Z,5.35
2023-04-18T14:32:38.270Z,4.53
2023-04-18T14:35:09.324Z,8.35
2023-04-18T14:37:40.822Z,7.80
2023-04-18T14:40:11.320Z,5.40
2023-04-18T14:42:39.493Z,5.55
2023-04-18T14:45:08.794Z,8.32
2023-04-18T14:47:39.102Z,5.57
2023-04-18T14:50:11.855Z,7.35
2023-04-18T14:52:40.434Z,6.72
2023-04-18T14:55:09.870Z,2.97
2023-04-18T14:57:39.202Z,5.22
2023-04-18T15:00:11.425Z,5.15
2023-04-18T15:02:40.044Z,4.50
2023-04-18T15:05:11.123Z,2.90
2023-04-18T15:07:40.793Z,8.50
2023-04-18T15:10:12.655Z,4.15
2023-04-18T15:12:41.666Z,3.63
2023-04-18T15:15:10.497Z,3.78
2023-04-18T15:17:38.707Z,1.65
2023-04-18T15:20:09.504Z,2.90
2023-04-18T15:22:37.784Z,12.70
2023-04-18T15:25:06.646Z,4.00
2023-04-18T15:27:34.880Z,3.90
2023-04-18T15:30:03.836Z,7.10
2023-04-18T15:32:32.985Z,7.40
2023-04-18T15:35:01.084Z,3.38
2023-04-18T15:37:30.539Z,7.78
2023-04-18T15:39:58.789Z,7.38
2023-04-18T15:42:28.035Z,9.23
2023-04-18T15:44:56.393Z,4.53
2023-04-18T15:47:24.484Z,4.82
2023-04-18T15:49:52.575Z,4.05
2023-04-18T15:52:20.756Z,5.88
2023-04-18T15:54:53.038Z,6.85
2023-04-18T15:57:21.974Z,3.83
2023-04-18T15:59:50.123Z,3.00
2023-04-18T16:02:18.250Z,8.65
2023-04-18T16:04:46.708Z,2.13
2023-04-18T16:07:16.012Z,2.60
2023-04-18T16:09:44.163Z,4.57
2023-04-18T16:12:13.640Z,12.43
2023-04-18T16:14:41.782Z,4.45
2023-04-18T16:17:09.946Z,5.63
2023-04-18T16:19:40.935Z,3.15
2023-04-18T16:22:09.122Z,10.35
2023-04-18T16:24:37.184Z,6.80
2023-04-18T16:27:05.747Z,4.72
2023-04-18T16:29:35.501Z,6.95
2023-04-18T16:32:03.789Z,3.45
2023-04-18T16:34:32.073Z,4.60
2023-04-18T16:37:00.188Z,8.30
2023-04-18T16:39:31.505Z,6.43
2023-04-18T16:41:59.733Z,3.28
2023-04-18T16:44:27.941Z,3.72
2023-04-18T16:46:57.424Z,5.10
2023-04-18T16:49:26.159Z,6.05
2023-04-18T16:51:54.212Z,4.68
2023-04-18T16:54:22.356Z,16.08
2023-04-18T16:56:50.442Z,3.33
2023-04-18T16:59:18.570Z,4.68
2023-04-18T17:01:46.764Z,11.35
2023-04-18T17:04:17.228Z,2.47
2023-04-18T17:06:45.574Z,6.50
2023-04-18T17:09:14.826Z,4.50
2023-04-18T17:11:43.110Z,5.28
2023-04-18T17:14:11.564Z,4.00
2023-04-18T17:16:41.695Z,4.40
2023-04-18T17:19:11.292Z,4.72
2023-04-18T17:21:40.906Z,8.13
2023-04-18T17:24:09.431Z,5.03
2023-04-18T17:26:39.527Z,8.45
2023-04-18T17:29:08.798Z,3.80
2023-04-18T17:31:37.461Z,5.95
2023-04-18T17:34:06.101Z,6.43
2023-04-18T17:36:34.385Z,9.02
2023-04-18T17:39:06.459Z,6.57
2023-04-18T17:41:37.699Z,5.03
2023-04-18T17:44:07.887Z,3.63
2023-04-18T17:46:36.363Z,9.35
2023-04-18T17:49:04.705Z,7.05
2023-04-18T17:51:32.991Z,3.55
2023-04-18T17:54:00.997Z,2.97
2023-04-18T17:56:31.539Z,8.77
2023-04-18T17:58:59.650Z,6.82
2023-04-18T18:01:30.315Z,6.10
2023-04-18T18:03:58.905Z,4.00
2023-04-18T18:06:27.870Z,6.72
2023-04-18T18:08:56.061Z,5.72
2023-04-18T18:11:24.225Z,9.98
2023-04-18T18:13:55.624Z,4.65
2023-04-18T18:16:24.120Z,5.07
2023-04-18T18:18:52.591Z,9.80
2023-04-18T18:21:20.826Z,6.47
2023-04-18T18:23:48.908Z,7.90
2023-04-18T18:26:16.954Z,9.75
2023-04-18T18:28:45.024Z,6.85
2023-04-18T18:31:14.524Z,6.18
2023-04-18T18:33:42.579Z,5.95
2023-04-18T18:36:10.575Z,2.53
2023-04-18T18:38:38.683Z,4.22
2023-04-18T18:41:07.143Z,4.53
2023-04-18T18:43:35.517Z,3.72
2023-04-18T18:46:03.533Z,5.00
2023-04-18T18:48:36.934Z,3.13
2023-04-18T18:51:05.198Z,6.03
2023-04-18T18:53:33.207Z,17.23
2023-04-18T18:56:01.678Z,6.20
2023-04-18T18:58:29.726Z,3.88
2023-04-18T19:00:59.913Z,4.03
2023-04-18T19:03:28.225Z,7.35
2023-04-18T19:05:57.713Z,5.15
2023-04-18T19:08:25.865Z,4.85
2023-04-18T19:10:54.005Z,3.97
2023-04-18T19:13:23.895Z,4.07
2023-04-18T19:15:52.193Z,5.28
2023-04-18T19:18:20.521Z,10.75
2023-04-18T19:20:49.841Z,2.95
2023-04-18T19:23:19.518Z,3.38
2023-04-18T19:25:47.776Z,7.70
2023-04-18T19:28:18.095Z,8.70
2023-04-18T19:30:47.259Z,5.15
2023-04-18T19:33:15.443Z,6.28
2023-04-18T19:35:44.099Z,7.05
2023-04-18T19:38:12.145Z,3.88
2023-04-18T19:40:41.721Z,4.80
2023-04-18T19:43:09.849Z,5.78
2023-04-18T19:45:38.051Z,14.27
2023-04-18T19:48:06.814Z,4.88
2023-04-18T19:50:34.886Z,4.72
2023-04-18T19:53:03.041Z,5.95
2023-04-18T19:55:31.594Z,4.10
2023-04-18T19:58:01.104Z,3.65
2023-04-18T20:00:29.404Z,6.65
2023-04-18T20:02:58.673Z,10.27
2023-04-18T20:05:27.003Z,4.40
2023-04-18T20:07:55.052Z,3.67
2023-04-18T20:10:23.215Z,4.18
2023-04-18T20:12:51.519Z,8.13
2023-04-18T20:15:30.756Z,5.00
2023-04-18T20:17:59.642Z,4.68
2023-04-18T20:20:28.034Z,3.78
2023-04-18T20:22:56.182Z,7.43
2023-04-18T20:25:24.439Z,4.93
2023-04-18T20:27:52.653Z,3.15
2023-04-18T20:30:23.346Z,3.65
2023-04-18T20:32:51.628Z,3.42
2023-04-18T20:35:20.514Z,3.10
2023-04-18T20:37:49.848Z,5.97
2023-04-18T20:40:18.645Z,6.05
2023-04-18T20:42:46.827Z,4.65
2023-04-18T20:45:14.947Z,4.88
2023-04-18T20:47:44.480Z,10.00
2023-04-18T20:50:14.048Z,4.65
2023-04-18T20:52:42.871Z,2.40
2023-04-18T20:55:11.285Z,5.85
2023-04-18T20:57:39.292Z,4.43
2023-04-18T21:00:10.547Z,12.48
2023-04-18T21:02:39.084Z,9.05
2023-04-18T21:05:09.346Z,4.00
2023-04-18T21:07:37.774Z,5.10
2023-04-18T21:10:06.338Z,4.03
2023-04-18T21:12:34.613Z,6.40
2023-04-18T21:15:02.628Z,6.20
2023-04-18T21:17:31.448Z,10.85
2023-04-18T21:19:59.555Z,3.65
2023-04-18T21:22:28.950Z,4.20
2023-04-18T21:24:56.974Z,3.08
2023-04-18T21:27:25.115Z,3.28
2023-04-18T21:29:53.075Z,4.85
2023-04-18T21:32:21.089Z,9.20
2023-04-18T21:34:49.069Z,4.57
2023-04-18T21:37:16.992Z,3.63
2023-04-18T21:39:46.479Z,4.13
2023-04-18T21:42:14.454Z,5.25
2023-04-18T21:44:42.442Z,3.40
2023-04-18T21:47:10.378Z,4.55
2023-04-18T21:49:38.346Z,4.25
2023-04-18T21:52:07.636Z,6.55
2023-04-18T21:54:35.648Z,3.60
2023-04-18T21:57:05.967Z,4.95
2023-04-18T21:59:33.945Z,4.00
2023-04-18T22:02:02.168Z,3.00
2023-04-18T22:04:30.306Z,7.88
2023-04-18T22:06:58.583Z,2.55
2023-04-18T22:09:26.553Z,2.92
2023-04-18T22:11:56.891Z,4.47
2023-04-18T22:14:28.183Z,4.47
2023-04-18T22:16:56.293Z,4.43
2023-04-18T22:19:24.785Z,3.83
2023-04-18T22:21:52.808Z,5.30
2023-04-18T22:24:21.992Z,4.35
2023-04-18T22:26:50.092Z,3.05
2023-04-18T22:29:18.033Z,2.90
2023-04-18T22:31:47.512Z,2.60
2023-04-18T22:34:15.846Z,3.60
2023-04-18T22:36:45.568Z,6.32
2023-04-18T22:39:13.614Z,4.90
2023-04-18T22:41:41.574Z,3.67
2023-04-18T22:44:09.942Z,4.53
2023-04-18T22:46:39.286Z,3.60
2023-04-18T22:49:08.692Z,4.18
2023-04-18T22:51:38.211Z,4.50
2023-04-18T22:54:06.658Z,4.30
2023-04-18T22:56:34.570Z,5.22
2023-04-18T22:59:02.551Z,5.05
2023-04-18T23:01:30.736Z,7.35
2023-04-18T23:03:59.104Z,4.18
2023-04-18T23:06:30.009Z,3.83
2023-04-18T23:08:58.067Z,3.53
2023-04-18T23:11:26.324Z,4.38
2023-04-18T23:13:54.276Z,4.47
2023-04-18T23:16:23.063Z,7.32
2023-04-18T23:18:52.146Z,3.90
2023-04-18T23:21:20.114Z,3.17
2023-04-18T23:23:49.529Z,7.47
2023-04-18T23:26:17.590Z,4.55
2023-04-18T23:28:45.594Z,5.05
2023-04-18T23:31:13.640Z,7.32
2023-04-18T23:33:41.642Z,3.47
2023-04-18T23:36:10.027Z,6.72
2023-04-18T23:38:38.475Z,3.33
2023-04-18T23:41:08.050Z,3.60
2023-04-18T23:43:36.846Z,4.47
2023-04-18T23:46:04.979Z,3.25
2023-04-18T23:48:33.112Z,7.25
2023-04-18T23:51:02.417Z,2.95
2023-04-18T23:53:30.677Z,4.22
2023-04-18T23:55:58.606Z,4.70
2023-04-18T23:58:28.076Z,3.35
